createdAt,value
2023-01-11T00:03:04.103Z,4.38
2023-01-11T00:06:08.243Z,4.90
2023-01-11T00:09:10.563Z,4.35
2023-01-11T00:12:14.293Z,5.00
2023-01-11T00:15:17.171Z,3.42
2023-01-11T00:18:19.663Z,4.88
2023-01-11T00:21:22.635Z,4.87
2023-01-11T00:24:24.911Z,5.53
2023-01-11T00:27:27.184Z,4.03
2023-01-11T00:30:29.508Z,5.13
2023-01-11T00:33:31.896Z,2.95
2023-01-11T00:36:34.971Z,5.63
2023-01-11T00:39:37.281Z,6.50
2023-01-11T00:42:58.209Z,5.25
2023-01-11T00:46:19.068Z,5.38
2023-01-11T00:49:21.676Z,4.72
2023-01-11T00:52:24.037Z,6.40
2023-01-11T00:55:26.908Z,5.47
2023-01-11T00:58:29.104Z,4.28
2023-01-11T01:01:31.792Z,7.60
2023-01-11T01:04:34.920Z,4.78
2023-01-11T01:07:37.755Z,6.40
2023-01-11T01:10:39.953Z,4.95
2023-01-11T01:14:00.820Z,6.18
2023-01-11T01:17:09.012Z,8.02
2023-01-11T01:20:11.657Z,4.95
2023-01-11T01:23:13.924Z,7.13
2023-01-11T01:26:16.194Z,4.30
2023-01-11T01:29:18.497Z,5.18
2023-01-11T01:32:20.779Z,5.57
2023-01-11T01:35:23.144Z,5.28
2023-01-11T01:38:25.495Z,6.33
2023-01-11T01:41:28.440Z,3.67
2023-01-11T01:44:54.461Z,5.13
2023-01-11T01:48:01.987Z,3.42
2023-01-11T01:51:06.169Z,3.08
2023-01-11T01:54:13.230Z,4.47
2023-01-11T01:57:21.643Z,4.35
2023-01-11T02:00:24.121Z,6.28
2023-01-11T02:03:27.095Z,5.07
2023-01-11T02:06:29.393Z,5.55
2023-01-11T02:09:45.768Z,4.73
2023-01-11T02:12:57.087Z,4.65
2023-01-11T02:16:08.462Z,3.72
2023-01-11T02:19:18.813Z,3.47
2023-01-11T02:22:34.350Z,5.72
2023-01-11T02:25:54.741Z,5.77
2023-01-11T02:29:03.429Z,3.25
2023-01-11T02:32:29.089Z,5.78
2023-01-11T02:35:31.425Z,6.25
2023-01-11T02:38:46.626Z,3.33
2023-01-11T02:42:17.638Z,4.87
2023-01-11T02:45:32.470Z,3.47
2023-01-11T02:48:42.254Z,4.72
2023-01-11T02:51:52.043Z,4.85
2023-01-11T02:54:57.906Z,4.03
2023-01-11T02:58:02.623Z,8.77
2023-01-11T03:01:05.105Z,5.60
2023-01-11T03:04:29.867Z,5.28
2023-01-11T03:07:47.605Z,6.43
2023-01-11T03:11:05.884Z,3.85
2023-01-11T03:14:35.670Z,3.60
2023-01-11T03:17:40.932Z,4.72
2023-01-11T03:20:49.782Z,3.90
2023-01-11T03:23:57.911Z,4.55
2023-01-11T03:27:00.117Z,4.68
2023-01-11T03:30:21.699Z,7.90
2023-01-11T03:33:50.180Z,8.75
2023-01-11T03:37:24.983Z,5.93
2023-01-11T03:40:30.788Z,7.78
2023-01-11T03:43:34.667Z,6.75
2023-01-11T03:46:40.314Z,6.87
2023-01-11T03:50:07.294Z,5.07
2023-01-11T03:53:10.749Z,6.95
2023-01-11T03:56:16.264Z,7.10
2023-01-11T03:59:18.617Z,5.07
2023-01-11T04:02:24.915Z,8.50
2023-01-11T04:05:27.297Z,6.78
2023-01-11T04:08:31.273Z,6.85
2023-01-11T04:11:33.707Z,7.97
2023-01-11T04:14:36.194Z,6.07
2023-01-11T04:17:38.511Z,5.27
2023-01-11T04:20:41.360Z,11.00
2023-01-11T04:23:43.649Z,8.73
2023-01-11T04:26:45.924Z,7.30
2023-01-11T04:29:48.245Z,8.40
2023-01-11T04:32:50.598Z,9.03
2023-01-11T04:35:52.832Z,5.15
2023-01-11T04:38:55.154Z,7.50
2023-01-11T04:42:16.118Z,6.95
2023-01-11T04:45:18.381Z,8.00
2023-01-11T04:48:20.787Z,6.07
2023-01-11T04:51:23.243Z,6.10
2023-01-11T04:54:25.520Z,5.80
2023-01-11T04:57:27.809Z,24.52
2023-01-11T05:00:30.153Z,50.25
2023-01-11T05:03:32.953Z,7.00
2023-01-11T05:06:35.335Z,6.47
2023-01-11T05:09:37.641Z,7.05
2023-01-11T05:12:40.021Z,6.53
2023-01-11T05:15:42.334Z,6.90
2023-01-11T05:18:49.504Z,7.73
2023-01-11T05:21:51.880Z,8.68
2023-01-11T05:24:54.111Z,9.05
2023-01-11T05:27:56.433Z,8.70
2023-01-11T05:30:58.844Z,8.15
2023-01-11T05:34:01.220Z,8.70
2023-01-11T05:37:03.530Z,9.20
2023-01-11T05:40:06.952Z,9.70
2023-01-11T05:43:09.355Z,7.88
2023-01-11T05:46:12.539Z,7.03
2023-01-11T05:49:15.125Z,8.47
2023-01-11T05:52:17.690Z,7.45
2023-01-11T05:55:20.167Z,7.00
2023-01-11T05:58:23.723Z,8.32
2023-01-11T06:01:26.412Z,10.77
2023-01-11T06:04:28.820Z,10.03
2023-01-11T06:07:33.152Z,8.95
2023-01-11T06:10:38.552Z,15.35
2023-01-11T06:13:40.841Z,7.45
2023-01-11T06:16:43.483Z,8.40
2023-01-11T06:19:51.310Z,10.30
2023-01-11T06:22:53.839Z,9.77
2023-01-11T06:26:01.287Z,8.27
2023-01-11T06:29:03.604Z,10.18
2023-01-11T06:32:16.295Z,9.77
2023-01-11T06:35:19.842Z,10.07
2023-01-11T06:38:24.283Z,9.38
2023-01-11T06:41:29.030Z,13.15
2023-01-11T06:44:31.262Z,8.10
2023-01-11T06:47:33.579Z,7.78
2023-01-11T06:50:35.946Z,10.23
2023-01-11T06:53:38.481Z,12.10
2023-01-11T06:56:41.269Z,9.63
2023-01-11T06:59:44.274Z,12.05
2023-01-11T07:02:47.555Z,12.40
2023-01-11T07:05:50.285Z,8.47
2023-01-11T07:08:58.863Z,9.95
2023-01-11T07:12:10.971Z,10.57
2023-01-11T07:15:13.581Z,10.20
2023-01-11T07:18:19.504Z,10.82
2023-01-11T07:21:21.970Z,11.30
2023-01-11T07:24:25.315Z,13.48
2023-01-11T07:27:36.285Z,12.63
2023-01-11T07:30:55.587Z,11.68
2023-01-11T07:33:58.914Z,15.88
2023-01-11T07:37:01.231Z,21.60
2023-01-11T07:40:03.813Z,24.73
2023-01-11T07:43:14.378Z,18.90
2023-01-11T07:46:20.307Z,16.38
2023-01-11T07:49:25.830Z,19.30
2023-01-11T07:52:28.174Z,17.97
2023-01-11T07:55:31.495Z,16.33
2023-01-11T07:58:39.384Z,16.90
2023-01-11T08:02:02.018Z,16.80
2023-01-11T08:05:08.842Z,11.75
2023-01-11T08:08:16.067Z,12.10
2023-01-11T08:11:37.063Z,15.18
2023-01-11T08:14:39.349Z,15.40
2023-01-11T08:17:41.726Z,16.00
2023-01-11T08:20:44.140Z,16.35
2023-01-11T08:23:46.482Z,21.57
2023-01-11T08:26:49.999Z,13.38
2023-01-11T08:29:52.359Z,16.35
2023-01-11T08:32:54.747Z,16.70
2023-01-11T08:35:57.134Z,17.70
2023-01-11T08:38:59.524Z,14.63
2023-01-11T08:42:03.375Z,15.35
2023-01-11T08:46:37.466Z,17.52
2023-01-11T08:49:43.164Z,15.63
2023-01-11T08:52:45.415Z,13.85
2023-01-11T08:59:32.595Z,17.48
2023-01-11T09:02:36.754Z,17.30
2023-01-11T09:05:48.116Z,18.63
2023-01-11T09:08:59.432Z,12.82
2023-01-11T09:12:11.799Z,14.57
2023-01-11T09:15:15.296Z,13.32
2023-01-11T09:18:17.644Z,13.98
2023-01-11T09:21:26.768Z,16.33
2023-01-11T09:24:30.789Z,13.32
2023-01-11T09:27:33.348Z,15.47
2023-01-11T09:30:36.767Z,16.55
2023-01-11T09:33:39.343Z,14.75
2023-01-11T09:36:41.822Z,14.23
2023-01-11T09:39:44.810Z,13.10
2023-01-11T09:42:52.716Z,12.37
2023-01-11T09:46:00.502Z,12.70
2023-01-11T09:49:03.533Z,16.05
2023-01-11T09:52:39.547Z,11.57
2023-01-11T09:55:50.563Z,14.93
2023-01-11T09:59:19.288Z,13.60
2023-01-11T10:02:31.710Z,7.95
2023-01-11T10:06:07.048Z,17.30
2023-01-11T10:18:37.852Z,10.67
2023-01-11T10:20:35.536Z,14.02
2023-01-11T10:23:49.613Z,12.32
2023-01-11T10:26:59.655Z,7.93
2023-01-11T10:30:32.834Z,12.75
2023-01-11T10:33:52.274Z,12.07
2023-01-11T10:37:30.659Z,12.27
2023-01-11T10:45:12.348Z,8.77
2023-01-11T10:48:38.842Z,10.07
2023-01-11T10:53:17.927Z,8.47
2023-01-11T10:57:03.125Z,11.60
2023-01-11T11:01:11.366Z,9.63
2023-01-11T11:04:40.260Z,11.63
2023-01-11T11:07:56.178Z,7.13
2023-01-11T11:11:01.953Z,7.20
2023-01-11T11:14:13.483Z,10.15
2023-01-11T11:17:24.484Z,7.90
2023-01-11T11:20:32.530Z,8.25
2023-01-11T11:23:35.268Z,5.70
2023-01-11T11:26:41.645Z,6.77
2023-01-11T11:29:50.110Z,8.55
2023-01-11T11:33:00.423Z,6.68
2023-01-11T11:36:05.573Z,6.38
2023-01-11T11:39:19.971Z,4.97
2023-01-11T11:42:23.218Z,8.33
2023-01-11T11:45:27.721Z,4.88
2023-01-11T11:48:34.665Z,4.97
2023-01-11T11:51:37.147Z,8.18
2023-01-11T11:54:50.049Z,8.70
2023-01-11T11:57:52.569Z,7.87
2023-01-11T12:00:55.105Z,8.30
2023-01-11T12:04:21.485Z,9.38
2023-01-11T12:07:40.465Z,7.70
2023-01-11T12:10:58.064Z,5.45
2023-01-11T12:14:16.567Z,6.10
2023-01-11T12:17:26.005Z,6.13
2023-01-11T12:20:34.037Z,8.30
2023-01-11T12:23:36.706Z,8.45
2023-01-11T12:27:16.310Z,15.68
2023-01-11T12:30:35.709Z,8.60
2023-01-11T12:33:41.371Z,5.85
2023-01-11T12:36:46.565Z,5.85
2023-01-11T12:40:10.907Z,4.63
2023-01-11T12:43:34.524Z,5.07
2023-01-11T12:47:05.567Z,2.10
2023-01-11T12:50:17.413Z,4.88
2023-01-11T12:53:49.063Z,6.35
2023-01-11T12:57:10.685Z,5.80
2023-01-11T13:00:50.691Z,6.70
2023-01-11T13:04:21.031Z,5.37
2023-01-11T13:07:34.702Z,3.83
2023-01-11T13:10:45.586Z,3.63
2023-01-11T13:14:01.414Z,5.85
2023-01-11T13:17:12.706Z,10.35
2023-01-11T13:20:20.896Z,3.50
2023-01-11T13:23:53.631Z,5.00
2023-01-11T13:32:01.084Z,4.25
2023-01-11T13:35:16.086Z,5.18
2023-01-11T13:38:30.664Z,4.63
2023-01-11T13:41:46.554Z,6.03
2023-01-11T13:44:56.862Z,3.28
2023-01-11T13:48:06.519Z,4.82
2023-01-11T13:51:11.958Z,2.97
2023-01-11T13:54:42.016Z,3.70
2023-01-11T13:57:53.647Z,6.43
2023-01-11T14:01:20.614Z,3.92
2023-01-11T14:04:33.713Z,3.20
2023-01-11T14:07:51.250Z,4.60
2023-01-11T14:11:10.561Z,4.13
2023-01-11T14:14:33.884Z,4.30
2023-01-11T14:18:11.684Z,4.07
2023-01-11T14:21:30.299Z,6.70
2023-01-11T14:24:36.077Z,4.80
2023-01-11T14:28:05.887Z,5.40
2023-01-11T14:31:26.579Z,7.28
2023-01-11T14:35:06.481Z,3.95
2023-01-11T14:38:36.015Z,6.82
2023-01-11T14:41:57.285Z,4.13
2023-01-11T14:45:28.919Z,9.73
2023-01-11T14:48:50.201Z,9.85
2023-01-11T14:52:03.960Z,7.43
2023-01-11T14:55:30.938Z,7.80
2023-01-11T14:58:33.252Z,5.45
2023-01-11T15:02:03.565Z,8.20
2023-01-11T15:05:10.797Z,6.43
2023-01-11T15:08:14.262Z,10.55
2023-01-11T15:11:35.735Z,13.77
2023-01-11T15:14:38.160Z,11.23
2023-01-11T15:18:00.467Z,12.03
2023-01-11T15:21:05.206Z,9.95
2023-01-11T15:24:22.298Z,18.35
2023-01-11T15:27:28.115Z,10.65
2023-01-11T15:30:30.466Z,14.20
2023-01-11T15:34:16.614Z,9.40
2023-01-11T15:42:10.259Z,8.93
2023-01-11T15:46:07.833Z,11.52
2023-01-11T15:49:31.525Z,15.50
2023-01-11T15:52:52.669Z,18.73
2023-01-11T15:56:10.218Z,14.40
2023-01-11T16:00:15.898Z,18.95
2023-01-11T16:04:05.285Z,15.70
2023-01-11T16:07:28.915Z,23.35
2023-01-11T16:10:46.530Z,12.63
2023-01-11T16:14:11.858Z,20.55
2023-01-11T16:17:21.691Z,27.45
2023-01-11T16:20:26.693Z,32.28
2023-01-11T16:23:30.947Z,27.50
2023-01-11T16:26:35.163Z,26.53
2023-01-11T16:29:37.835Z,20.90
2023-01-11T16:32:40.207Z,26.90
2023-01-11T16:35:42.526Z,25.30
2023-01-11T16:38:46.463Z,26.48
2023-01-11T16:42:05.928Z,29.53
2023-01-11T16:45:14.336Z,30.13
2023-01-11T16:48:24.344Z,39.88
2023-01-11T16:51:26.643Z,38.13
2023-01-11T16:54:31.158Z,51.38
2023-01-11T16:57:37.682Z,64.43
2023-01-11T17:00:40.350Z,68.20
2023-01-11T17:03:50.691Z,48.38
2023-01-11T17:06:53.332Z,30.02
2023-01-11T17:10:24.627Z,37.15
2023-01-11T17:13:54.853Z,33.70
2023-01-11T17:17:02.909Z,38.15
2023-01-11T17:20:15.999Z,31.50
2023-01-11T17:23:18.481Z,28.45
2023-01-11T17:26:26.437Z,33.28
2023-01-11T17:29:32.291Z,29.03
2023-01-11T17:32:46.524Z,33.72
2023-01-11T17:35:48.911Z,38.75
2023-01-11T17:38:51.271Z,31.90
2023-01-11T17:42:12.163Z,27.60
2023-01-11T17:45:23.451Z,62.53
2023-01-11T17:48:27.088Z,63.03
2023-01-11T17:51:34.094Z,71.32
2023-01-11T17:54:36.398Z,59.35
2023-01-11T17:57:39.125Z,59.58
2023-01-11T18:00:43.593Z,51.57
2023-01-11T18:03:51.452Z,44.75
2023-01-11T18:07:07.282Z,44.00
2023-01-11T18:10:18.283Z,46.85
2023-01-11T18:13:31.786Z,46.50
2023-01-11T18:16:34.314Z,65.07
2023-01-11T18:19:43.226Z,70.47
2023-01-11T18:22:54.637Z,71.95
2023-01-11T18:26:36.914Z,70.55
2023-01-11T18:29:39.489Z,61.55
2023-01-11T18:32:44.647Z,76.47
2023-01-11T18:35:49.495Z,67.15
2023-01-11T18:38:51.913Z,58.85
2023-01-11T18:42:09.810Z,57.15
2023-01-11T18:45:13.121Z,51.63
2023-01-11T18:48:15.872Z,55.67
2023-01-11T18:51:36.241Z,42.92
2023-01-11T18:54:39.387Z,57.30
2023-01-11T18:57:42.473Z,44.95
2023-01-11T19:00:44.774Z,55.92
2023-01-11T19:03:47.123Z,35.33
2023-01-11T19:06:52.405Z,45.35
2023-01-11T19:09:55.084Z,48.88
2023-01-11T19:12:57.519Z,47.03
2023-01-11T19:16:02.922Z,49.13
2023-01-11T19:19:05.278Z,51.90
2023-01-11T19:22:07.702Z,48.10
2023-01-11T19:25:10.471Z,47.78
2023-01-11T19:28:12.874Z,50.42
2023-01-11T19:31:15.342Z,50.95
2023-01-11T19:34:18.106Z,45.37
2023-01-11T19:37:20.797Z,47.42
2023-01-11T19:40:23.100Z,53.08
2023-01-11T19:43:25.591Z,50.50
2023-01-11T19:46:31.878Z,50.97
2023-01-11T19:49:34.431Z,43.33
2023-01-11T19:52:36.910Z,54.40
2023-01-11T19:55:39.427Z,44.55
2023-01-11T19:58:41.772Z,47.33
2023-01-11T20:01:44.629Z,56.10
2023-01-11T20:04:47.621Z,49.90
2023-01-11T20:07:50.478Z,54.28
2023-01-11T20:10:53.645Z,53.65
2023-01-11T20:13:55.913Z,43.35
2023-01-11T20:16:58.285Z,47.95
2023-01-11T20:20:00.728Z,48.90
2023-01-11T20:23:03.325Z,47.88
2023-01-11T20:26:07.492Z,44.38
2023-01-11T20:29:09.818Z,42.08
2023-01-11T20:32:34.898Z,39.30
2023-01-11T20:35:34.467Z,38.93
2023-01-11T20:38:36.868Z,53.20
2023-01-11T20:41:48.770Z,48.42
2023-01-11T20:44:51.183Z,50.20
2023-01-11T20:47:53.435Z,51.75
2023-01-11T20:50:59.864Z,46.73
2023-01-11T20:54:02.698Z,49.85
2023-01-11T20:57:12.336Z,47.53
2023-01-11T21:00:15.191Z,45.42
2023-01-11T21:03:20.077Z,44.23
2023-01-11T21:06:22.457Z,39.17
2023-01-11T21:09:24.689Z,47.35
2023-01-11T21:12:27.044Z,39.47
2023-01-11T21:15:29.359Z,48.92
2023-01-11T21:18:31.740Z,40.33
2023-01-11T21:21:34.878Z,44.70
2023-01-11T21:24:38.940Z,53.20
2023-01-11T21:27:41.231Z,51.97
2023-01-11T21:30:43.524Z,63.17
2023-01-11T21:33:45.805Z,52.93
2023-01-11T21:36:48.197Z,53.93
2023-01-11T21:39:51.729Z,46.33
2023-01-11T21:42:54.648Z,51.67
2023-01-11T21:45:56.971Z,49.45
2023-01-11T21:48:59.274Z,49.63
2023-01-11T21:52:01.747Z,59.23
2023-01-11T21:55:04.296Z,53.28
2023-01-11T21:58:06.717Z,60.17
2023-01-11T22:01:11.460Z,54.88
2023-01-11T22:04:17.784Z,57.07
2023-01-11T22:07:20.364Z,49.70
2023-01-11T22:10:22.869Z,53.60
2023-01-11T22:13:26.841Z,56.15
2023-01-11T22:16:30.769Z,53.97
2023-01-11T22:19:33.136Z,48.90
2023-01-11T22:22:35.585Z,49.53
2023-01-11T22:25:37.987Z,50.58
2023-01-11T22:28:59.772Z,44.35
2023-01-11T22:32:04.379Z,46.80
2023-01-11T22:35:07.278Z,48.40
2023-01-11T22:38:09.643Z,52.07
2023-01-11T22:41:12.134Z,51.72
2023-01-11T22:44:14.826Z,43.05
2023-01-11T22:47:17.218Z,42.08
2023-01-11T22:50:19.634Z,46.80
2023-01-11T22:53:22.075Z,45.07
2023-01-11T22:56:26.502Z,42.55
2023-01-11T22:59:28.920Z,47.92
2023-01-11T23:02:31.269Z,43.97
2023-01-11T23:05:33.620Z,42.40
2023-01-11T23:08:43.522Z,48.00
2023-01-11T23:12:04.504Z,42.42
2023-01-11T23:15:07.654Z,44.20
2023-01-11T23:18:11.544Z,46.42
2023-01-11T23:21:14.348Z,46.40
2023-01-11T23:24:17.140Z,46.00
2023-01-11T23:27:19.561Z,50.38
2023-01-11T23:30:22.111Z,51.25
2023-01-11T23:33:24.560Z,46.05
2023-01-11T23:36:32.044Z,45.50
2023-01-11T23:39:34.399Z,49.87
2023-01-11T23:42:38.451Z,47.53
2023-01-11T23:45:40.880Z,53.67
2023-01-11T23:48:43.190Z,57.85
2023-01-11T23:51:45.470Z,52.47
2023-01-11T23:54:48.271Z,47.22
2023-01-11T23:58:08.932Z,58.08
